Time;durP1;ratioP1;P1;durP2;ratioP2;P2;SDS_P1;SDS_P2;PMS_P1;PMS_P2;Temp;Humidity;BMP_temperature;BMP_pressure;BME280_temperature;BME280_humidity;BME280_pressure;Samples;Min_cycle;Max_cycle;Signal;HPM_P1;HPM_P2
2024/03/04 00:02:20;;;;;;;;;;;6.60;1.00;;;;;;5021860;28;19936;-77
2024/03/04 00:04:49;;;;;;;;;;;6.50;1.00;;;;;;5035430;28;20368;-77
2024/03/04 00:07:18;;;;;;;;;;;6.40;1.00;;;;;;5028841;28;20288;-78
2024/03/04 00:12:47;;;;;;;;;;;6.40;1.00;;;;;;5027041;28;20304;-76
2024/03/04 00:15:15;;;;;;;;;;;6.30;1.00;;;;;;5048032;28;19909;-77
2024/03/04 00:17:42;;;;;;;;;;;6.20;1.00;;;;;;5028451;28;19913;-77
2024/03/04 00:20:13;;;;;;;;;;;6.20;1.00;;;;;;5030909;28;19916;-77
2024/03/04 00:22:41;;;;;;;;;;;6.20;1.00;;;;;;5034748;28;20336;-76
2024/03/04 00:25:16;;;;;;;;;;;6.10;1.00;;;;;;5041784;28;19916;-77
2024/03/04 00:30:48;;;;;;;;;;;6.00;1.00;;;;;;5040914;28;20004;-77
2024/03/04 00:33:14;;;;;;;;;;;6.00;1.00;;;;;;5036292;28;19913;-76
2024/03/04 00:35:43;;;;;;;;;;;6.00;1.00;;;;;;5054770;28;19916;-78
2024/03/04 00:38:18;;;;;;;;;;;5.90;1.00;;;;;;5052697;28;19920;-77
2024/03/04 00:43:55;;;;;;;;;;;5.70;1.00;;;;;;5046983;28;19957;-77
2024/03/04 00:46:22;;;;;;;;;;;5.70;1.00;;;;;;5045408;28;19917;-77
2024/03/04 00:52:13;;;;;;;;;;;5.50;1.00;;;;;;5041154;28;19996;-76
2024/03/04 00:54:43;;;;;;;;;;;5.50;1.00;;;;;;5054380;28;19942;-77
2024/03/04 00:57:09;;;;;;;;;;;5.40;1.00;;;;;;5042307;28;19913;-77
2024/03/04 00:59:35;;;;;;;;;;;5.40;1.00;;;;;;5038594;28;19932;-77
2024/03/04 01:05:03;;;;;;;;;;;5.40;1.00;;;;;;5041101;28;19917;-77
2024/03/04 01:07:36;;;;;;;;;;;5.30;1.00;;;;;;5049439;28;19917;-76
2024/03/04 01:10:12;;;;;;;;;;;5.20;1.00;;;;;;5037451;28;19948;-77
2024/03/04 01:12:42;;;;;;;;;;;5.20;1.00;;;;;;5051255;28;19940;-76
2024/03/04 01:18:11;;;;;;;;;;;5.10;1.00;;;;;;5037057;28;19916;-77
2024/03/04 01:20:45;;;;;;;;;;;5.10;1.00;;;;;;5029868;28;19909;-76
2024/03/04 01:26:13;;;;;;;;;;;5.10;1.00;;;;;;5037196;28;19909;-77
2024/03/04 01:29:12;;;;;;;;;;;5.00;1.00;;;;;;5033951;28;19908;-77
2024/03/04 01:32:02;;;;;;;;;;;5.00;1.00;;;;;;5043333;28;19952;-77
2024/03/04 01:34:42;;;;;;;;;;;5.00;1.00;;;;;;5038755;28;20283;-76
2024/03/04 01:37:19;;;;;;;;;;;5.00;1.00;;;;;;5037143;28;20070;-77
2024/03/04 01:40:13;;;;;;;;;;;5.00;1.00;;;;;;5045564;28;19909;-76
2024/03/04 01:42:48;;;;;;;;;;;4.90;1.00;;;;;;5044135;28;19959;-77
2024/03/04 01:45:23;;;;;;;;;;;4.90;1.00;;;;;;5043159;28;20264;-77
2024/03/04 01:48:10;;;;;;;;;;;4.90;1.00;;;;;;5019074;28;19913;-76
2024/03/04 01:51:07;;;;;;;;;;;4.90;1.00;;;;;;5040819;28;20360;-77
2024/03/04 01:56:43;;;;;;;;;;;4.90;1.00;;;;;;5024980;28;20273;-77
2024/03/04 01:59:42;;;;;;;;;;;4.80;1.00;;;;;;5027304;28;19908;-77
2024/03/04 02:02:42;;;;;;;;;;;4.70;1.00;;;;;;5034862;28;19909;-77
2024/03/04 02:05:43;;;;;;;;;;;4.60;1.00;;;;;;5030790;28;19914;-77
2024/03/04 02:08:42;;;;;;;;;;;4.60;1.00;;;;;;5034810;28;20440;-77
2024/03/04 02:11:12;;;;;;;;;;;4.60;1.00;;;;;;5033795;28;19911;-77
2024/03/04 02:13:38;;;;;;;;;;;4.60;1.00;;;;;;5043646;28;20470;-77
2024/03/04 02:19:08;;;;;;;;;;;4.50;1.00;;;;;;5034357;28;20410;-78
2024/03/04 02:22:01;;;;;;;;;;;4.50;1.00;;;;;;5057234;28;19905;-76
2024/03/04 02:24:27;;;;;;;;;;;4.50;1.00;;;;;;5044505;28;20307;-76
2024/03/04 02:26:52;;;;;;;;;;;4.50;1.00;;;;;;5048752;28;19909;-77
2024/03/04 02:29:18;;;;;;;;;;;4.40;1.00;;;;;;5055090;28;19909;-77
2024/03/04 02:31:45;;;;;;;;;;;4.30;1.00;;;;;;5036137;28;19959;-77
2024/03/04 02:34:13;;;;;;;;;;;4.30;1.00;;;;;;5036498;28;19979;-77
2024/03/04 02:36:54;;;;;;;;;;;4.30;1.00;;;;;;5042309;28;19905;-77
2024/03/04 02:42:42;;;;;;;;;;;4.30;1.00;;;;;;5034260;28;19962;-78
2024/03/04 02:45:12;;;;;;;;;;;4.30;1.00;;;;;;5036790;28;19916;-78
2024/03/04 02:47:42;;;;;;;;;;;4.30;1.00;;;;;;5067438;28;19913;-77
2024/03/04 02:53:12;;;;;;;;;;;4.40;1.00;;;;;;5044307;28;19951;-78
2024/03/04 02:58:42;;;;;;;;;;;4.30;1.00;;;;;;5048003;28;19916;-77
2024/03/04 03:01:12;;;;;;;;;;;4.30;1.00;;;;;;5036382;28;19912;-77
2024/03/04 03:03:42;;;;;;;;;;;4.40;1.00;;;;;;5034589;28;19905;-77
2024/03/04 03:06:12;;;;;;;;;;;4.30;1.00;;;;;;5054611;28;19909;-77
2024/03/04 03:09:12;;;;;;;;;;;4.30;1.00;;;;;;5030419;28;20012;-77
2024/03/04 03:12:12;;;;;;;;;;;4.30;1.00;;;;;;5037112;28;19905;-77
2024/03/04 03:17:42;;;;;;;;;;;4.30;1.00;;;;;;5030714;28;19960;-77
2024/03/04 03:20:24;;;;;;;;;;;4.40;5.70;;;;;;5026846;28;19909;-78
2024/03/04 03:23:12;;;;;;;;;;;4.40;5.50;;;;;;5039926;28;19909;-77
2024/03/04 03:26:12;;;;;;;;;;;4.40;9.00;;;;;;5032680;28;19936;-77
2024/03/04 03:28:43;;;;;;;;;;;4.40;9.00;;;;;;5041868;28;19917;-77
2024/03/04 03:31:12;;;;;;;;;;;4.40;9.50;;;;;;5038761;28;19905;-76
2024/03/04 03:33:42;;;;;;;;;;;4.40;5.90;;;;;;5019769;28;19913;-77
2024/03/04 03:36:12;;;;;;;;;;;4.40;7.30;;;;;;5046933;28;19948;-77
2024/03/04 03:39:12;;;;;;;;;;;4.40;6.00;;;;;;5035372;28;19927;-77
2024/03/04 03:42:12;;;;;;;;;;;4.40;6.40;;;;;;5026412;28;20341;-78
2024/03/04 03:45:12;;;;;;;;;;;4.30;5.80;;;;;;5044416;28;19971;-77
2024/03/04 03:47:42;;;;;;;;;;;4.30;6.50;;;;;;5052336;28;19913;-77
2024/03/04 03:50:08;;;;;;;;;;;4.20;3.80;;;;;;5046600;28;19916;-77
2024/03/04 03:52:42;;;;;;;;;;;4.20;3.20;;;;;;5043041;28;19913;-76
2024/03/04 03:58:11;;;;;;;;;;;4.10;5.50;;;;;;5035112;28;19916;-77
2024/03/04 04:01:06;;;;;;;;;;;4.00;3.00;;;;;;5035219;28;19909;-78
2024/03/04 04:03:42;;;;;;;;;;;4.00;5.70;;;;;;5035307;28;19959;-77
2024/03/04 04:06:12;;;;;;;;;;;4.00;4.20;;;;;;5048244;28;20011;-76
2024/03/04 04:08:39;;;;;;;;;;;4.00;6.70;;;;;;5021622;28;19909;-77
2024/03/04 04:11:05;;;;;;;;;;;4.00;6.80;;;;;;5037024;28;20309;-77
2024/03/04 04:13:30;;;;;;;;;;;4.00;7.30;;;;;;5034704;28;19921;-77
2024/03/04 04:16:00;;;;;;;;;;;4.00;13.10;;;;;;5043949;28;19909;-76
2024/03/04 04:18:36;;;;;;;;;;;4.00;10.60;;;;;;5043863;28;19904;-76
2024/03/04 04:21:12;;;;;;;;;;;4.00;13.20;;;;;;5037527;28;19911;-76
2024/03/04 04:23:42;;;;;;;;;;;4.00;11.50;;;;;;5043743;28;19940;-77
2024/03/04 04:26:21;;;;;;;;;;;4.00;10.90;;;;;;5048671;28;19905;-77
2024/03/04 04:32:13;;;;;;;;;;;4.00;15.70;;;;;;5043267;28;20766;-76
2024/03/04 04:34:42;;;;;;;;;;;4.00;14.60;;;;;;5034177;28;19909;-78
2024/03/04 04:37:14;;;;;;;;;;;3.90;17.60;;;;;;5052449;28;19916;-77
2024/03/04 04:39:42;;;;;;;;;;;3.90;20.70;;;;;;5054236;28;19908;-77
2024/03/04 04:45:24;;;;;;;;;;;3.90;24.80;;;;;;5031320;28;19916;-78
2024/03/04 04:48:12;;;;;;;;;;;3.90;18.90;;;;;;5034696;28;20395;-78
2024/03/04 04:50:38;;;;;;;;;;;3.90;23.00;;;;;;5044679;28;19992;-78
2024/03/04 04:53:14;;;;;;;;;;;3.90;23.20;;;;;;5052073;28;20008;-77
2024/03/04 04:56:12;;;;;;;;;;;3.80;20.90;;;;;;5051566;28;19909;-77
2024/03/04 04:59:12;;;;;;;;;;;3.80;21.10;;;;;;5050987;28;19947;-77
2024/03/04 05:02:12;;;;;;;;;;;3.80;24.10;;;;;;5041022;28;20379;-78
2024/03/04 05:04:45;;;;;;;;;;;3.80;23.60;;;;;;5034055;28;19905;-77
2024/03/04 05:07:25;;;;;;;;;;;3.80;26.80;;;;;;5053988;28;20554;-78
2024/03/04 05:10:13;;;;;;;;;;;3.80;31.40;;;;;;5041198;28;20297;-78
2024/03/04 05:15:42;;;;;;;;;;;3.80;34.20;;;;;;5050600;28;19924;-79
2024/03/04 05:18:13;;;;;;;;;;;3.80;28.30;;;;;;5047729;28;19909;-79
2024/03/04 05:23:42;;;;;;;;;;;3.80;34.50;;;;;;5038011;28;19909;-78
2024/03/04 05:26:12;;;;;;;;;;;3.80;37.80;;;;;;5052940;28;19904;-77
2024/03/04 05:29:12;;;;;;;;;;;3.80;37.60;;;;;;5052966;28;19913;-78
2024/03/04 05:32:12;;;;;;;;;;;3.90;34.50;;;;;;5025767;28;20016;-78
2024/03/04 05:34:43;;;;;;;;;;;3.80;37.80;;;;;;5028141;28;19963;-77
2024/03/04 05:37:12;;;;;;;;;;;3.90;34.50;;;;;;5043806;28;19909;-77
2024/03/04 05:39:46;;;;;;;;;;;3.90;37.80;;;;;;5045877;28;19909;-78
2024/03/04 05:42:13;;;;;;;;;;;3.90;41.80;;;;;;5048738;28;19904;-78
2024/03/04 05:44:42;;;;;;;;;;;4.00;37.80;;;;;;5056589;28;19951;-78
2024/03/04 05:47:08;;;;;;;;;;;4.00;37.80;;;;;;5050467;28;20385;-78
2024/03/04 05:49:42;;;;;;;;;;;4.00;34.60;;;;;;5027843;28;19916;-78
2024/03/04 05:52:12;;;;;;;;;;;4.00;37.90;;;;;;5050257;28;19909;-79
2024/03/04 05:54:42;;;;;;;;;;;4.10;34.60;;;;;;5029161;28;19912;-77
2024/03/04 05:57:13;;;;;;;;;;;4.10;38.00;;;;;;5037920;28;20377;-77
2024/03/04 05:59:43;;;;;;;;;;;4.20;38.00;;;;;;5042753;28;20352;-77
2024/03/04 06:02:12;;;;;;;;;;;4.40;35.00;;;;;;5044185;28;19909;-77
2024/03/04 06:05:00;;;;;;;;;;;4.40;38.20;;;;;;5037301;28;20012;-77
2024/03/04 06:07:37;;;;;;;;;;;4.40;35.00;;;;;;5027834;28;19909;-77
2024/03/04 06:10:12;;;;;;;;;;;4.50;35.00;;;;;;5051190;28;19909;-82
2024/03/04 06:12:42;;;;;;;;;;;4.50;38.30;;;;;;5057080;28;19911;-78
2024/03/04 06:15:12;;;;;;;;;;;4.50;38.20;;;;;;5037162;28;19920;-78
2024/03/04 06:18:13;;;;;;;;;;;4.40;34.90;;;;;;5053637;28;19909;-78
2024/03/04 06:21:12;;;;;;;;;;;4.50;38.30;;;;;;5040420;28;19905;-79
2024/03/04 06:23:42;;;;;;;;;;;4.60;35.10;;;;;;5024734;28;19910;-78
2024/03/04 06:26:13;;;;;;;;;;;4.60;38.40;;;;;;5017569;28;20437;-78
2024/03/04 06:28:42;;;;;;;;;;;4.70;38.40;;;;;;5039417;28;20022;-78
2024/03/04 06:31:13;;;;;;;;;;;4.70;38.40;;;;;;5056237;28;19909;-78
2024/03/04 06:33:42;;;;;;;;;;;4.90;35.30;;;;;;5044354;28;19987;-78
2024/03/04 06:36:42;;;;;;;;;;;4.90;38.60;;;;;;5049656;28;20273;-78
2024/03/04 06:39:14;;;;;;;;;;;5.20;44.50;;;;;;5045789;28;19916;-77
2024/03/04 06:41:43;;;;;;;;;;;5.20;47.80;;;;;;5034038;28;20272;-77
2024/03/04 06:44:08;;;;;;;;;;;5.40;50.70;;;;;;5035783;28;19912;-77
2024/03/04 06:46:36;;;;;;;;;;;5.50;46.00;;;;;;5036454;28;19913;-77
2024/03/04 06:49:02;;;;;;;;;;;5.50;45.90;;;;;;5036190;28;19916;-77
2024/03/04 06:51:31;;;;;;;;;;;5.60;35.90;;;;;;5037705;28;19905;-77
2024/03/04 06:53:58;;;;;;;;;;;5.60;39.30;;;;;;5037958;28;19929;-77
2024/03/04 06:56:42;;;;;;;;;;;5.60;39.30;;;;;;5041662;28;20352;-77
2024/03/04 06:59:12;;;;;;;;;;;5.70;39.20;;;;;;5037626;28;19909;-77
2024/03/04 07:01:43;;;;;;;;;;;5.80;39.30;;;;;;5028381;28;19909;-77
2024/03/04 07:04:25;;;;;;;;;;;6.00;36.90;;;;;;5029060;28;20369;-78
2024/03/04 07:07:12;;;;;;;;;;;6.00;39.60;;;;;;5045499;28;19908;-77
2024/03/04 07:09:43;;;;;;;;;;;6.10;36.30;;;;;;5044722;28;19909;-76
2024/03/04 07:12:12;;;;;;;;;;;6.30;37.10;;;;;;5027516;28;19905;-77
2024/03/04 07:14:38;;;;;;;;;;;6.30;40.00;;;;;;5037522;28;19956;-78
2024/03/04 07:17:12;;;;;;;;;;;6.50;40.10;;;;;;5038513;28;19909;-77
2024/03/04 07:19:43;;;;;;;;;;;6.60;40.00;;;;;;5038327;28;19909;-77
2024/03/04 07:25:42;;;;;;;;;;;7.00;37.10;;;;;;5041055;28;19928;-78
2024/03/04 07:28:08;;;;;;;;;;;7.10;37.20;;;;;;5026556;28;19909;-77
2024/03/04 07:30:36;;;;;;;;;;;7.20;40.60;;;;;;5035882;28;19913;-77
2024/03/04 07:33:13;;;;;;;;;;;7.30;37.30;;;;;;5034154;28;20005;-77
2024/03/04 07:35:43;;;;;;;;;;;7.40;40.90;;;;;;5036788;28;19999;-78
2024/03/04 07:38:12;;;;;;;;;;;7.60;37.60;;;;;;5041505;28;20047;-77
2024/03/04 07:40:42;;;;;;;;;;;7.70;37.70;;;;;;5040161;28;20022;-77
2024/03/04 07:43:12;;;;;;;;;;;7.70;41.00;;;;;;5037306;28;19905;-77
2024/03/04 07:45:43;;;;;;;;;;;7.60;40.90;;;;;;5043379;28;19909;-77
2024/03/04 07:48:13;;;;;;;;;;;7.60;40.80;;;;;;5034779;28;19913;-77
2024/03/04 07:50:43;;;;;;;;;;;7.60;37.60;;;;;;5035760;28;19909;-77
2024/03/04 07:53:13;;;;;;;;;;;7.80;37.70;;;;;;5034697;28;19937;-78
2024/03/04 07:55:43;;;;;;;;;;;7.90;37.80;;;;;;5040689;28;19919;-78
2024/03/04 07:58:13;;;;;;;;;;;8.00;38.00;;;;;;5038503;28;20313;-79
2024/03/04 08:00:38;;;;;;;;;;;8.20;41.40;;;;;;5042127;28;19916;-79
2024/03/04 08:03:13;;;;;;;;;;;8.40;41.30;;;;;;5033936;28;19912;-78
2024/03/04 08:09:14;;;;;;;;;;;8.80;29.00;;;;;;5031584;28;19920;-78
2024/03/04 08:12:08;;;;;;;;;;;9.00;28.30;;;;;;5025633;28;19909;-78
2024/03/04 08:14:33;;;;;;;;;;;9.20;25.20;;;;;;5034535;28;19975;-78
2024/03/04 08:17:01;;;;;;;;;;;9.40;19.40;;;;;;5034691;28;19908;-78
2024/03/04 08:19:43;;;;;;;;;;;9.60;14.90;;;;;;5034638;28;19909;-78
2024/03/04 08:22:25;;;;;;;;;;;9.80;10.50;;;;;;5034631;28;19905;-78
2024/03/04 08:30:57;;;;;;;;;;;10.20;1.00;;;;;;5034600;28;20371;-78
2024/03/04 08:33:23;;;;;;;;;;;10.10;1.00;;;;;;5038211;28;19905;-78
2024/03/04 08:36:13;;;;;;;;;;;10.00;1.00;;;;;;5043946;28;19909;-78
2024/03/04 08:45:07;;;;;;;;;;;10.50;1.00;;;;;;5037119;28;20083;-79
2024/03/04 08:47:43;;;;;;;;;;;10.60;1.00;;;;;;5034946;28;20355;-83
2024/03/04 08:53:13;;;;;;;;;;;10.40;1.00;;;;;;5053905;28;19962;-78
2024/03/04 09:04:49;;;;;;;;;;;10.40;1.00;;;;;;5054159;28;20364;-78
2024/03/04 09:07:19;;;;;;;;;;;10.40;1.00;;;;;;5053844;28;19923;-77
2024/03/04 09:09:53;;;;;;;;;;;10.40;1.00;;;;;;5041065;28;19913;-78
2024/03/04 09:15:23;;;;;;;;;;;10.60;1.00;;;;;;5038174;28;19967;-78
2024/03/04 09:21:25;;;;;;;;;;;11.00;1.00;;;;;;5018309;28;19916;-77
2024/03/04 09:27:14;;;;;;;;;;;11.30;1.00;;;;;;5054901;28;19913;-78
2024/03/04 09:30:01;;;;;;;;;;;11.30;1.00;;;;;;5050934;28;19912;-86
2024/03/04 09:35:29;;;;;;;;;;;11.70;1.00;;;;;;5018340;28;19967;-80
2024/03/04 09:37:55;;;;;;;;;;;11.90;1.00;;;;;;5045135;28;19909;-79
2024/03/04 09:43:55;;;;;;;;;;;12.00;1.00;;;;;;5038279;28;19912;-79
2024/03/04 09:46:22;;;;;;;;;;;12.00;1.00;;;;;;5040743;28;20375;-79
2024/03/04 09:51:50;;;;;;;;;;;11.80;1.00;;;;;;5041220;28;19957;-79
2024/03/04 10:00:43;;;;;;;;;;;12.00;1.00;;;;;;5037441;28;19955;-82
2024/03/04 10:03:13;;;;;;;;;;;11.90;1.00;;;;;;5019208;28;19967;-82
2024/03/04 10:08:41;;;;;;;;;;;12.00;1.00;;;;;;5036987;28;20272;-82
2024/03/04 10:11:13;;;;;;;;;;;12.00;1.00;;;;;;5030856;28;19905;-79
2024/03/04 10:14:13;;;;;;;;;;;12.00;1.00;;;;;;5046001;28;19915;-78
2024/03/04 10:17:13;;;;;;;;;;;12.00;1.00;;;;;;5039589;28;19913;-79
2024/03/04 10:20:13;;;;;;;;;;;12.00;1.00;;;;;;5036889;28;19909;-79
2024/03/04 10:29:15;;;;;;;;;;;11.90;1.00;;;;;;5036314;28;19920;-79
2024/03/04 10:31:53;;;;;;;;;;;12.00;1.00;;;;;;5044867;28;19948;-78
2024/03/04 10:37:55;;;;;;;;;;;12.10;1.00;;;;;;5044070;28;19915;-79
2024/03/04 10:43:32;;;;;;;;;;;11.90;1.00;;;;;;5043097;28;19911;-83
2024/03/04 10:46:01;;;;;;;;;;;11.80;1.00;;;;;;5059926;28;19909;-78
2024/03/04 10:48:27;;;;;;;;;;;11.80;1.00;;;;;;5049446;28;19920;-77
2024/03/04 10:50:54;;;;;;;;;;;11.90;1.00;;;;;;5035270;28;19912;-77
2024/03/04 10:53:25;;;;;;;;;;;11.90;1.00;;;;;;5024156;28;19909;-77
2024/03/04 10:59:01;;;;;;;;;;;12.00;1.00;;;;;;5056070;28;19912;-77
2024/03/04 11:01:43;;;;;;;;;;;12.10;1.00;;;;;;5036235;28;19912;-77
2024/03/04 11:04:31;;;;;;;;;;;12.30;1.00;;;;;;5051277;28;19904;-77
2024/03/04 11:07:19;;;;;;;;;;;12.40;1.00;;;;;;5055929;28;20002;-77
2024/03/04 11:13:10;;;;;;;;;;;12.40;1.00;;;;;;5036070;28;19911;-77
2024/03/04 11:16:03;;;;;;;;;;;12.30;1.00;;;;;;5022876;28;19960;-77
2024/03/04 11:18:49;;;;;;;;;;;12.40;1.00;;;;;;5040500;28;20280;-77
2024/03/04 11:21:19;;;;;;;;;;;12.40;1.00;;;;;;5027700;28;19905;-77
2024/03/04 11:23:49;;;;;;;;;;;12.60;1.00;;;;;;5035136;28;20016;-77
2024/03/04 11:26:16;;;;;;;;;;;12.70;1.00;;;;;;5039104;28;20407;-77
2024/03/04 11:28:43;;;;;;;;;;;12.70;1.00;;;;;;5049005;28;19909;-80
2024/03/04 11:31:28;;;;;;;;;;;12.70;1.00;;;;;;5046113;28;20306;-77
2024/03/04 11:34:13;;;;;;;;;;;12.50;1.00;;;;;;5054616;28;20007;-76
2024/03/04 11:36:39;;;;;;;;;;;12.40;1.00;;;;;;5039945;28;19982;-77
2024/03/04 11:39:31;;;;;;;;;;;12.50;1.00;;;;;;5035422;28;19909;-76
2024/03/04 11:48:27;;;;;;;;;;;12.60;1.00;;;;;;5041314;28;19935;-76
2024/03/04 11:57:02;;;;;;;;;;;12.90;1.00;;;;;;5034924;28;20309;-76
2024/03/04 11:59:28;;;;;;;;;;;12.90;1.00;;;;;;5034537;28;20314;-76
2024/03/04 12:02:13;;;;;;;;;;;12.90;1.00;;;;;;5034688;28;19999;-76
2024/03/04 12:04:43;;;;;;;;;;;12.90;1.00;;;;;;5034537;28;19999;-77
2024/03/04 12:07:14;;;;;;;;;;;13.00;1.00;;;;;;5033764;28;19904;-77
2024/03/04 12:09:43;;;;;;;;;;;13.10;1.00;;;;;;5023343;28;20324;-77
2024/03/04 12:12:13;;;;;;;;;;;13.30;1.00;;;;;;5035114;28;19912;-76
2024/03/04 12:15:01;;;;;;;;;;;13.40;1.00;;;;;;5033532;28;19916;-76
2024/03/04 12:17:28;;;;;;;;;;;13.60;1.00;;;;;;5035522;28;19913;-76
2024/03/04 12:20:13;;;;;;;;;;;13.60;1.00;;;;;;5034231;28;20379;-76
2024/03/04 12:23:15;;;;;;;;;;;13.70;1.00;;;;;;5037556;28;19909;-76
2024/03/04 12:34:55;;;;;;;;;;;13.80;1.00;;;;;;5034584;28;19924;-76
2024/03/04 12:37:43;;;;;;;;;;;13.70;1.00;;;;;;5033590;28;19909;-78
2024/03/04 12:40:43;;;;;;;;;;;13.80;1.00;;;;;;5033718;28;19913;-77
2024/03/04 12:43:13;;;;;;;;;;;13.70;1.00;;;;;;5034067;28;19924;-76
2024/03/04 12:48:43;;;;;;;;;;;13.70;1.00;;;;;;5033021;28;19928;-77
2024/03/04 12:51:12;;;;;;;;;;;13.70;1.00;;;;;;5035124;28;19943;-76
2024/03/04 12:53:43;;;;;;;;;;;13.60;1.00;;;;;;5033950;28;19913;-76
2024/03/04 12:56:43;;;;;;;;;;;13.60;1.00;;;;;;5038592;28;20399;-76
2024/03/04 12:59:25;;;;;;;;;;;13.60;1.00;;;;;;5037440;28;19909;-76
2024/03/04 13:02:01;;;;;;;;;;;13.60;1.00;;;;;;5043661;28;19909;-77
2024/03/04 13:04:37;;;;;;;;;;;13.60;1.00;;;;;;5034667;28;19916;-77
2024/03/04 13:07:13;;;;;;;;;;;13.60;1.00;;;;;;5032823;28;19914;-76
2024/03/04 13:09:49;;;;;;;;;;;13.60;1.00;;;;;;5042595;28;19909;-77
2024/03/04 13:12:37;;;;;;;;;;;13.40;1.00;;;;;;5038875;28;19952;-76
2024/03/04 13:18:19;;;;;;;;;;;13.30;1.00;;;;;;5034674;28;20002;-77
2024/03/04 13:24:13;;;;;;;;;;;13.30;1.00;;;;;;5036204;28;19916;-76
2024/03/04 13:26:55;;;;;;;;;;;13.20;1.00;;;;;;5038700;28;19913;-75
2024/03/04 13:29:25;;;;;;;;;;;13.20;1.00;;;;;;5033166;28;19940;-78
2024/03/04 13:31:51;;;;;;;;;;;13.10;1.00;;;;;;5033669;28;19936;-76
2024/03/04 13:34:25;;;;;;;;;;;13.00;1.00;;;;;;5033535;28;19909;-77
2024/03/04 13:37:13;;;;;;;;;;;12.90;1.00;;;;;;5035998;28;19920;-76
2024/03/04 13:39:49;;;;;;;;;;;12.90;1.00;;;;;;5039850;28;20300;-77
2024/03/04 13:42:25;;;;;;;;;;;12.60;1.00;;;;;;5035994;28;19913;-76
2024/03/04 13:45:07;;;;;;;;;;;12.40;1.00;;;;;;5041142;28;19913;-76
2024/03/04 13:53:38;;;;;;;;;;;12.30;1.00;;;;;;5034372;28;19921;-75
2024/03/04 13:56:04;;;;;;;;;;;12.20;1.00;;;;;;5032431;28;19913;-76
2024/03/04 13:58:43;;;;;;;;;;;12.10;1.00;;;;;;5035816;28;19913;-78
2024/03/04 14:01:08;;;;;;;;;;;12.00;1.00;;;;;;5040908;28;19908;-77
2024/03/04 14:03:44;;;;;;;;;;;11.90;1.00;;;;;;5033363;28;20009;-77
2024/03/04 14:09:16;;;;;;;;;;;11.80;1.00;;;;;;5045184;28;20007;-77
2024/03/04 14:12:01;;;;;;;;;;;11.70;1.00;;;;;;5036959;28;19910;-77
2024/03/04 14:14:43;;;;;;;;;;;11.70;1.00;;;;;;5035702;28;19925;-75
2024/03/04 14:17:08;;;;;;;;;;;11.80;1.00;;;;;;5038630;28;19944;-75
2024/03/04 14:19:34;;;;;;;;;;;11.80;1.00;;;;;;5035509;28;19913;-76
2024/03/04 14:22:19;;;;;;;;;;;11.80;1.00;;;;;;5042437;28;19909;-76
2024/03/04 14:27:47;;;;;;;;;;;11.80;1.00;;;;;;5037169;28;19967;-76
2024/03/04 14:30:43;;;;;;;;;;;11.80;1.00;;;;;;5042104;28;19913;-77
2024/03/04 14:33:44;;;;;;;;;;;11.80;1.00;;;;;;5043312;28;19959;-77
2024/03/04 14:42:16;;;;;;;;;;;11.70;1.00;;;;;;5021062;28;20418;-77
2024/03/04 14:44:42;;;;;;;;;;;11.70;1.00;;;;;;5052063;28;19913;-76
2024/03/04 14:47:08;;;;;;;;;;;11.70;1.00;;;;;;5056598;28;19917;-76
2024/03/04 14:49:49;;;;;;;;;;;11.40;1.00;;;;;;5055166;28;20265;-77
2024/03/04 14:52:20;;;;;;;;;;;11.40;1.00;;;;;;5046455;28;19908;-76
2024/03/04 14:54:57;;;;;;;;;;;11.40;1.00;;;;;;5043000;28;20357;-77
2024/03/04 14:57:49;;;;;;;;;;;11.40;1.00;;;;;;5056215;28;19959;-77
2024/03/04 15:00:37;;;;;;;;;;;11.40;1.00;;;;;;5046556;28;19913;-77
2024/03/04 15:03:03;;;;;;;;;;;11.30;1.00;;;;;;5035497;28;19920;-76
2024/03/04 15:09:08;;;;;;;;;;;11.30;1.00;;;;;;5046209;28;19966;-77
2024/03/04 15:24:13;;;;;;;;;;;11.40;1.00;;;;;;5041195;28;19963;-81
2024/03/04 15:29:41;;;;;;;;;;;11.50;1.00;;;;;;5036651;28;19988;-84
2024/03/04 15:35:10;;;;;;;;;;;11.40;1.00;;;;;;5033731;28;19915;-78
2024/03/04 15:37:36;;;;;;;;;;;11.40;1.00;;;;;;5046767;28;20000;-74
2024/03/04 15:40:05;;;;;;;;;;;11.40;1.00;;;;;;5043871;28;20373;-75
2024/03/04 15:42:43;;;;;;;;;;;11.40;1.00;;;;;;5042358;28;20380;-77
2024/03/04 15:51:16;;;;;;;;;;;11.50;1.00;;;;;;5049453;28;20314;-78
2024/03/04 15:54:07;;;;;;;;;;;11.50;1.00;;;;;;5035002;28;19913;-77
2024/03/04 15:56:33;;;;;;;;;;;11.40;1.00;;;;;;5034969;28;19913;-77
2024/03/04 15:59:01;;;;;;;;;;;11.30;1.00;;;;;;5035462;28;20383;-80
2024/03/04 16:01:27;;;;;;;;;;;11.30;1.00;;;;;;5035879;28;19947;-78
2024/03/04 16:03:55;;;;;;;;;;;11.30;1.00;;;;;;5032418;28;19995;-78
2024/03/04 16:09:30;;;;;;;;;;;11.30;1.00;;;;;;5036226;28;19959;-78
2024/03/04 16:12:03;;;;;;;;;;;11.30;1.00;;;;;;5034238;28;19912;-78
2024/03/04 16:17:32;;;;;;;;;;;11.20;1.00;;;;;;5038441;28;19975;-79
2024/03/04 16:20:31;;;;;;;;;;;11.10;1.00;;;;;;5042586;28;19925;-78
2024/03/04 16:23:19;;;;;;;;;;;11.20;1.00;;;;;;5047299;28;19939;-79
2024/03/04 16:31:51;;;;;;;;;;;11.20;1.00;;;;;;5033339;28;19919;-77
2024/03/04 16:37:19;;;;;;;;;;;11.20;1.00;;;;;;5040387;28;20006;-77
2024/03/04 16:40:12;;;;;;;;;;;11.20;1.00;;;;;;5037509;28;19972;-77
2024/03/04 16:43:07;;;;;;;;;;;11.20;1.00;;;;;;5034326;28;19909;-77
2024/03/04 16:45:33;;;;;;;;;;;11.20;1.00;;;;;;5037613;28;19913;-74
2024/03/04 16:47:58;;;;;;;;;;;11.20;1.00;;;;;;5043691;28;19975;-73
2024/03/04 16:50:24;;;;;;;;;;;11.20;1.00;;;;;;5039114;28;19962;-73
2024/03/04 16:52:56;;;;;;;;;;;11.20;1.00;;;;;;5043311;28;20000;-73
2024/03/04 16:55:32;;;;;;;;;;;11.20;1.00;;;;;;5034421;28;19913;-75
2024/03/04 16:58:03;;;;;;;;;;;11.20;1.00;;;;;;5041310;28;19988;-75
2024/03/04 17:00:28;;;;;;;;;;;11.20;1.00;;;;;;5042173;28;19958;-74
2024/03/04 17:02:54;;;;;;;;;;;11.10;1.00;;;;;;5049194;28;19995;-75
2024/03/04 17:05:37;;;;;;;;;;;11.10;1.00;;;;;;5031929;28;19909;-76
2024/03/04 17:08:03;;;;;;;;;;;11.00;1.00;;;;;;5046014;28;19917;-76
2024/03/04 17:10:29;;;;;;;;;;;10.90;1.00;;;;;;5038047;28;19920;-75
2024/03/04 17:13:03;;;;;;;;;;;10.80;1.00;;;;;;5035206;28;19908;-74
2024/03/04 17:18:31;;;;;;;;;;;10.80;1.00;;;;;;5043404;28;19951;-75
2024/03/04 17:21:01;;;;;;;;;;;10.80;1.00;;;;;;5048640;28;19917;-76
2024/03/04 17:23:44;;;;;;;;;;;10.70;1.00;;;;;;5016022;28;20309;-76
2024/03/04 17:26:31;;;;;;;;;;;10.70;1.00;;;;;;5049118;28;19909;-74
2024/03/04 17:29:13;;;;;;;;;;;10.70;1.00;;;;;;5026521;28;19917;-75
2024/03/04 17:31:43;;;;;;;;;;;10.70;1.00;;;;;;5021153;28;19920;-74
2024/03/04 17:34:25;;;;;;;;;;;10.70;1.00;;;;;;5028911;28;19913;-75
2024/03/04 17:37:08;;;;;;;;;;;10.70;1.00;;;;;;5027289;28;19920;-75
2024/03/04 17:39:37;;;;;;;;;;;10.70;1.00;;;;;;5043633;28;19913;-74
2024/03/04 17:42:08;;;;;;;;;;;10.70;1.00;;;;;;5057647;28;19912;-75
2024/03/04 17:47:37;;;;;;;;;;;10.70;1.00;;;;;;5033748;28;19924;-76
2024/03/04 17:50:19;;;;;;;;;;;10.80;1.00;;;;;;5050688;28;19909;-76
2024/03/04 17:53:01;;;;;;;;;;;10.70;1.00;;;;;;5047324;28;20106;-74
2024/03/04 17:55:49;;;;;;;;;;;10.80;1.00;;;;;;5056765;28;19912;-74
2024/03/04 17:58:20;;;;;;;;;;;10.80;1.00;;;;;;5044224;28;19916;-75
2024/03/04 18:00:55;;;;;;;;;;;10.70;1.00;;;;;;5041541;28;19921;-75
2024/03/04 18:03:21;;;;;;;;;;;10.50;1.00;;;;;;5052713;28;19909;-75
2024/03/04 18:08:55;;;;;;;;;;;10.40;1.00;;;;;;5052185;28;20002;-75
2024/03/04 18:11:22;;;;;;;;;;;10.30;1.00;;;;;;5035283;28;19914;-76
2024/03/04 18:13:48;;;;;;;;;;;10.30;1.00;;;;;;5035311;28;19939;-75
2024/03/04 18:16:32;;;;;;;;;;;10.30;1.00;;;;;;5057092;28;19920;-75
2024/03/04 18:18:58;;;;;;;;;;;10.30;1.00;;;;;;5041856;28;19917;-76
2024/03/04 18:21:49;;;;;;;;;;;10.20;1.00;;;;;;5045683;28;19908;-75
2024/03/04 18:24:19;;;;;;;;;;;10.30;1.00;;;;;;5040300;28;19913;-75
2024/03/04 18:26:49;;;;;;;;;;;10.30;1.00;;;;;;5053119;28;19919;-75
2024/03/04 18:32:18;;;;;;;;;;;10.30;1.00;;;;;;5050013;28;20000;-77
2024/03/04 18:35:13;;;;;;;;;;;10.30;1.00;;;;;;5038699;28;20016;-78
2024/03/04 18:38:13;;;;;;;;;;;10.30;1.00;;;;;;5039202;28;19909;-77
2024/03/04 18:41:01;;;;;;;;;;;10.30;1.00;;;;;;5024851;28;19913;-77
2024/03/04 18:44:00;;;;;;;;;;;10.30;1.00;;;;;;5049915;28;19916;-77
2024/03/04 18:46:26;;;;;;;;;;;10.30;1.00;;;;;;5049031;28;19920;-77
2024/03/04 18:49:01;;;;;;;;;;;10.10;1.00;;;;;;5038713;28;19924;-76
2024/03/04 18:51:32;;;;;;;;;;;10.10;1.00;;;;;;5042742;28;20008;-76
2024/03/04 18:54:02;;;;;;;;;;;10.20;1.00;;;;;;5033420;28;19913;-76
2024/03/04 18:56:55;;;;;;;;;;;10.10;1.00;;;;;;5043941;28;19908;-76
2024/03/04 19:02:25;;;;;;;;;;;10.10;1.00;;;;;;5036591;28;20379;-76
2024/03/04 19:05:10;;;;;;;;;;;10.00;1.00;;;;;;5049897;28;20237;-76
2024/03/04 19:07:36;;;;;;;;;;;10.00;1.00;;;;;;5014174;28;19924;-75
2024/03/04 19:10:13;;;;;;;;;;;9.90;1.00;;;;;;5037206;28;20004;-75
2024/03/04 19:12:39;;;;;;;;;;;9.90;1.00;;;;;;5036055;28;19917;-76
2024/03/04 19:15:05;;;;;;;;;;;9.90;1.00;;;;;;5035996;28;19909;-75
2024/03/04 19:21:01;;;;;;;;;;;9.70;1.00;;;;;;5029899;28;19932;-75
2024/03/04 19:23:55;;;;;;;;;;;9.90;1.00;;;;;;5034332;28;19913;-76
2024/03/04 19:26:37;;;;;;;;;;;9.90;1.00;;;;;;5039388;28;19958;-75
2024/03/04 19:29:13;;;;;;;;;;;9.90;1.00;;;;;;5049609;28;19966;-76